createdAt,value
2022-10-30T00:04:32.623Z,12.11
2022-10-30T00:14:38.336Z,12.07
2022-10-30T00:24:43.930Z,12.06
2022-10-30T00:34:49.754Z,12.07
2022-10-30T00:44:55.504Z,12.09
2022-10-30T00:55:04.798Z,12.02
2022-10-30T01:05:11.966Z,12.05
2022-10-30T01:15:18.739Z,12.07
2022-10-30T01:25:38.392Z,12.02
2022-10-30T01:35:49.435Z,12.08
2022-10-30T01:46:15.816Z,12.05
2022-10-30T01:56:37.763Z,11.98
2022-10-30T02:06:43.946Z,11.95
2022-10-30T02:16:53.978Z,11.99
2022-10-30T02:27:00.185Z,11.98
2022-10-30T02:37:05.778Z,12.03
2022-10-30T02:47:11.492Z,12.00
2022-10-30T02:57:17.077Z,12.02
2022-10-30T03:07:22.639Z,12.13
2022-10-30T03:17:28.337Z,12.21
2022-10-30T03:27:34.152Z,12.22
2022-10-30T03:37:39.780Z,12.18
2022-10-30T03:47:45.341Z,12.18
2022-10-30T03:57:51.040Z,12.27
2022-10-30T04:08:00.413Z,12.29
2022-10-30T04:18:06.366Z,12.20
2022-10-30T04:28:12.540Z,12.16
2022-10-30T04:38:19.706Z,12.08
2022-10-30T04:48:25.689Z,12.03
2022-10-30T04:58:31.321Z,12.02
2022-10-30T05:08:36.979Z,11.91
2022-10-30T05:18:42.786Z,11.71
2022-10-30T05:28:48.704Z,11.58
2022-10-30T05:38:54.374Z,11.51
2022-10-30T05:49:00.669Z,11.39
2022-10-30T05:59:06.308Z,11.39
2022-10-30T06:09:11.973Z,11.46
2022-10-30T06:19:18.813Z,11.54
2022-10-30T06:29:25.161Z,11.81
2022-10-30T06:39:30.977Z,12.28
2022-10-30T06:49:36.562Z,12.53
2022-10-30T06:59:42.084Z,12.62
2022-10-30T07:09:47.739Z,12.71
2022-10-30T07:19:53.493Z,12.90
2022-10-30T07:29:59.800Z,13.11
2022-10-30T07:40:11.502Z,13.25
2022-10-30T07:50:18.475Z,13.36
2022-10-30T08:00:24.349Z,13.58
2022-10-30T08:10:30.146Z,13.80
2022-10-30T08:20:35.907Z,14.01
2022-10-30T08:30:42.281Z,14.23
2022-10-30T08:40:48.522Z,14.47
2022-10-30T08:50:55.021Z,14.70
2022-10-30T09:01:01.769Z,14.93
2022-10-30T09:11:08.250Z,15.07
2022-10-30T09:21:13.963Z,15.14
2022-10-30T09:31:19.773Z,15.57
2022-10-30T09:41:41.005Z,15.81
2022-10-30T09:52:14.828Z,16.06
2022-10-30T10:02:34.396Z,16.28
2022-10-30T10:12:45.255Z,16.39
2022-10-30T10:22:52.623Z,16.53
2022-10-30T10:33:18.772Z,16.97
2022-10-30T10:43:36.872Z,17.24
2022-10-30T10:53:43.711Z,17.23
2022-10-30T11:03:56.794Z,17.19
2022-10-30T11:14:02.532Z,17.12
2022-10-30T11:24:28.965Z,17.16
2022-10-30T11:34:36.806Z,17.30
2022-10-30T11:44:46.134Z,17.64
2022-10-30T11:54:54.738Z,17.69
2022-10-30T12:05:04.052Z,17.77
2022-10-30T12:15:21.918Z,17.81
2022-10-30T12:25:30.430Z,18.21
2022-10-30T12:35:45.898Z,18.35
2022-10-30T12:45:55.240Z,18.14
2022-10-30T12:56:06.461Z,17.89
2022-10-30T13:06:17.775Z,17.72
2022-10-30T13:16:27.588Z,17.54
2022-10-30T13:26:39.354Z,17.39
2022-10-30T13:36:51.026Z,17.32
2022-10-30T13:47:09.567Z,17.36
2022-10-30T13:57:21.317Z,17.38
2022-10-30T14:07:38.119Z,17.35
2022-10-30T14:18:20.754Z,17.19
2022-10-30T14:28:26.499Z,17.14
2022-10-30T14:38:37.137Z,16.96
2022-10-30T14:48:53.332Z,16.64
2022-10-30T14:59:21.822Z,16.37
2022-10-30T15:09:40.588Z,15.96
2022-10-30T15:19:46.326Z,15.48
2022-10-30T15:29:55.017Z,15.16
2022-10-30T15:40:23.483Z,14.82
2022-10-30T15:50:29.356Z,14.34
2022-10-30T16:00:39.014Z,13.98
2022-10-30T16:10:46.466Z,13.66
2022-10-30T16:20:53.695Z,13.38
2022-10-30T16:31:03.814Z,13.26
2022-10-30T16:41:13.508Z,13.24
2022-10-30T16:51:21.545Z,13.03
2022-10-30T17:01:29.417Z,12.73
2022-10-30T17:11:42.002Z,12.38
2022-10-30T17:21:48.172Z,12.03
2022-10-30T17:31:59.301Z,11.75
2022-10-30T17:42:05.344Z,11.50
2022-10-30T17:52:14.688Z,11.26
2022-10-30T18:02:22.801Z,11.05
2022-10-30T18:12:28.917Z,10.80
2022-10-30T18:22:34.691Z,10.55
2022-10-30T18:32:40.448Z,10.34
2022-10-30T18:42:46.174Z,10.11
2022-10-30T18:52:52.459Z,9.92
2022-10-30T19:02:59.400Z,10.04
2022-10-30T19:13:13.079Z,10.19
2022-10-30T19:23:22.282Z,10.02
2022-10-30T19:33:28.296Z,9.88
2022-10-30T19:43:34.025Z,9.71
2022-10-30T19:53:40.067Z,9.43
2022-10-30T20:03:45.689Z,9.28
2022-10-30T20:13:53.871Z,9.56
2022-10-30T20:24:00.486Z,9.74
2022-10-30T20:34:06.405Z,9.84
2022-10-30T20:44:14.346Z,9.43
2022-10-30T20:54:20.567Z,9.03
2022-10-30T21:04:26.443Z,8.75
2022-10-30T21:14:32.245Z,8.60
2022-10-30T21:24:38.173Z,8.66
2022-10-30T21:34:44.076Z,8.61
2022-10-30T21:44:49.738Z,8.47
2022-10-30T21:54:55.233Z,8.29
2022-10-30T22:05:00.951Z,8.13
2022-10-30T22:15:08.843Z,8.02
2022-10-30T22:25:14.607Z,7.88
2022-10-30T22:35:20.278Z,7.78
2022-10-30T22:45:26.367Z,7.76
2022-10-30T22:55:31.950Z,7.70
2022-10-30T23:05:37.630Z,7.66
2022-10-30T23:15:43.172Z,7.58
2022-10-30T23:25:48.841Z,7.46
2022-10-30T23:36:00.994Z,7.34
2022-10-30T23:46:06.769Z,7.25
2022-10-30T23:56:12.711Z,7.17
